Terminal Aerodrome Forecast
Issued by NWS

Home | Current Version | Previous Version | Text Only | Print | Product List | Glossary On
Versions: 1 2 3 4 5 6 7 8 9 10 11 12 13 14 15 16 17 18 19 20 21 22 23 24 25 26 27 28 29 30 31
000
FTUS45 KBOU 230854 AAA
TAFBJC
TAF AMD
KBJC 230854Z 2309/2406 03010KT P6SM BKN025 BKN040
     FM231000 01014KT P6SM SCT006 OVC012
      TEMPO 2310/2313 3SM -SHRA BKN006 OVC012
     FM231600 03008KT P6SM SCT030 OVC045
     FM232000 09006KT P6SM SCT040 BKN060
     FM240300 05006KT P6SM SCT060=

USA.gov is the U.S. government's official web portal to all federal, state and local government web resources and services.